Time;durP1;ratioP1;P1;durP2;ratioP2;P2;SDS_P1;SDS_P2;PMS_P1;PMS_P2;Temp;Humidity;BMP_temperature;BMP_pressure;BME280_temperature;BME280_humidity;BME280_pressure;Samples;Min_cycle;Max_cycle;Signal;HPM_P1;HPM_P2
2022/08/28 00:01:29;;;;;;;;;;;23.00;74.70;;;;;;5033251;28;1464;-66
2022/08/28 00:03:54;;;;;;;;;;;23.00;74.70;;;;;;5051131;28;1353;-66
2022/08/28 00:06:19;;;;;;;;;;;23.00;74.80;;;;;;5051137;28;1100;-65
2022/08/28 00:08:45;;;;;;;;;;;23.00;74.70;;;;;;5033476;28;1355;-66
2022/08/28 00:11:10;;;;;;;;;;;23.00;75.50;;;;;;5052153;28;1363;-66
2022/08/28 00:13:36;;;;;;;;;;;23.00;74.70;;;;;;5051248;28;1339;-65
2022/08/28 00:16:02;;;;;;;;;;;23.00;74.70;;;;;;5034102;28;1143;-66
2022/08/28 00:18:28;;;;;;;;;;;23.00;74.70;;;;;;5016991;28;1968;-65
2022/08/28 00:20:54;;;;;;;;;;;23.00;74.70;;;;;;5033590;28;1167;-66
2022/08/28 00:23:19;;;;;;;;;;;23.00;74.80;;;;;;5034231;28;1839;-65
2022/08/28 00:25:44;;;;;;;;;;;23.00;74.70;;;;;;5051979;28;1212;-65
2022/08/28 00:28:10;;;;;;;;;;;23.00;74.80;;;;;;5032950;28;1763;-67
2022/08/28 00:30:37;;;;;;;;;;;23.00;74.70;;;;;;5052589;28;1132;-65
2022/08/28 00:33:07;;;;;;;;;;;23.00;74.70;;;;;;5051364;28;1315;-63
2022/08/28 00:35:32;;;;;;;;;;;23.00;74.70;;;;;;5054585;28;1215;-65
2022/08/28 00:37:58;;;;;;;;;;;23.00;74.80;;;;;;5036241;28;1906;-65
2022/08/28 00:40:25;;;;;;;;;;;23.00;74.70;;;;;;5053621;28;1869;-64
2022/08/28 00:42:51;;;;;;;;;;;23.00;74.70;;;;;;5034421;28;1203;-64
2022/08/28 00:45:16;;;;;;;;;;;23.00;74.80;;;;;;5053218;28;1212;-66
2022/08/28 00:47:42;;;;;;;;;;;23.00;74.80;;;;;;5036682;28;1240;-64
2022/08/28 00:50:08;;;;;;;;;;;23.00;74.70;;;;;;5054895;28;1267;-66
2022/08/28 00:52:33;;;;;;;;;;;23.00;74.70;;;;;;5036239;28;1330;-64
2022/08/28 00:55:01;;;;;;;;;;;23.00;74.70;;;;;;5036996;28;1625;-65
2022/08/28 00:57:30;;;;;;;;;;;23.00;74.70;;;;;;5054644;28;1283;-65
2022/08/28 00:59:56;;;;;;;;;;;23.00;74.80;;;;;;5054510;28;1964;-66
2022/08/28 01:02:21;;;;;;;;;;;23.00;74.70;;;;;;5054159;28;1273;-66
2022/08/28 01:04:47;;;;;;;;;;;23.00;74.70;;;;;;5053909;28;1401;-67
2022/08/28 01:07:13;;;;;;;;;;;23.00;74.80;;;;;;5020469;28;1659;-66
2022/08/28 01:09:40;;;;;;;;;;;23.00;74.80;;;;;;5054509;28;1294;-65
2022/08/28 01:12:07;;;;;;;;;;;23.00;74.80;;;;;;5035967;28;1353;-66
2022/08/28 01:14:34;;;;;;;;;;;23.00;74.80;;;;;;5054451;28;1319;-66
2022/08/28 01:16:59;;;;;;;;;;;23.00;74.80;;;;;;5036724;28;1295;-65
2022/08/28 01:19:27;;;;;;;;;;;23.00;74.80;;;;;;5053706;28;1878;-65
2022/08/28 01:22:09;;;;;;;;;;;23.00;74.80;;;;;;5035660;28;1437;-64
2022/08/28 01:24:35;;;;;;;;;;;23.00;74.80;;;;;;5053849;28;1359;-66
2022/08/28 01:27:00;;;;;;;;;;;23.00;74.80;;;;;;5031471;28;1864;-66
2022/08/28 01:29:27;;;;;;;;;;;23.00;74.80;;;;;;5052351;28;1284;-67
2022/08/28 01:31:53;;;;;;;;;;;23.00;74.80;;;;;;5049235;28;1885;-67
2022/08/28 01:34:18;;;;;;;;;;;23.00;74.80;;;;;;5051376;28;1125;-67
2022/08/28 01:36:44;;;;;;;;;;;23.00;74.80;;;;;;5051905;28;1199;-66
2022/08/28 01:39:11;;;;;;;;;;;23.00;74.80;;;;;;5052092;28;1921;-67
2022/08/28 01:41:37;;;;;;;;;;;23.00;74.80;;;;;;5052157;28;1180;-67
2022/08/28 01:44:03;;;;;;;;;;;23.00;74.90;;;;;;5052533;28;1263;-67
2022/08/28 01:46:30;;;;;;;;;;;23.00;74.80;;;;;;5052384;28;1199;-67
2022/08/28 01:48:55;;;;;;;;;;;23.00;74.80;;;;;;5052280;28;1287;-67
2022/08/28 01:51:21;;;;;;;;;;;23.00;74.80;;;;;;5048337;28;1873;-66
2022/08/28 01:53:46;;;;;;;;;;;23.00;74.80;;;;;;5052095;28;1322;-67
2022/08/28 01:56:12;;;;;;;;;;;23.00;74.80;;;;;;5052636;28;1224;-67
2022/08/28 01:58:38;;;;;;;;;;;23.00;74.80;;;;;;5033956;28;1969;-67
2022/08/28 02:01:08;;;;;;;;;;;23.00;74.90;;;;;;5051993;28;1208;-66
2022/08/28 02:03:33;;;;;;;;;;;23.00;74.80;;;;;;5034502;28;1208;-67
2022/08/28 02:05:59;;;;;;;;;;;23.00;74.80;;;;;;5052304;28;1212;-66
2022/08/28 02:08:24;;;;;;;;;;;23.00;74.80;;;;;;5051911;28;1309;-65
2022/08/28 02:10:51;;;;;;;;;;;23.00;74.90;;;;;;5049003;28;1912;-65
2022/08/28 02:13:17;;;;;;;;;;;23.00;74.80;;;;;;5046977;28;1883;-67
2022/08/28 02:15:42;;;;;;;;;;;23.00;74.80;;;;;;5033967;28;1271;-65
2022/08/28 02:18:08;;;;;;;;;;;23.00;74.90;;;;;;5052556;28;1914;-67
2022/08/28 02:20:33;;;;;;;;;;;23.00;74.80;;;;;;5052511;28;1235;-64
2022/08/28 02:22:59;;;;;;;;;;;23.00;74.80;;;;;;5051083;28;1267;-65
2022/08/28 02:25:24;;;;;;;;;;;23.00;74.80;;;;;;5034012;28;1247;-64
2022/08/28 02:27:50;;;;;;;;;;;23.00;74.80;;;;;;5032421;28;1290;-66
2022/08/28 02:30:16;;;;;;;;;;;23.00;74.90;;;;;;5025280;28;1301;-65
2022/08/28 02:32:41;;;;;;;;;;;23.00;74.80;;;;;;5008319;28;1372;-66
2022/08/28 02:35:07;;;;;;;;;;;23.00;74.90;;;;;;5026096;28;1297;-65
2022/08/28 02:37:33;;;;;;;;;;;23.00;74.80;;;;;;5027508;28;1394;-65
2022/08/28 02:39:58;;;;;;;;;;;23.00;74.90;;;;;;5046101;28;1902;-67
2022/08/28 02:42:25;;;;;;;;;;;23.00;74.90;;;;;;5045097;28;1308;-66
2022/08/28 02:44:50;;;;;;;;;;;23.00;74.90;;;;;;5034150;28;2152;-65
2022/08/28 02:47:17;;;;;;;;;;;23.00;74.90;;;;;;5044338;28;1340;-65
2022/08/28 02:49:43;;;;;;;;;;;23.00;74.90;;;;;;5052482;28;1288;-65
2022/08/28 02:52:08;;;;;;;;;;;23.00;74.90;;;;;;5034198;28;1048;-65
2022/08/28 02:54:34;;;;;;;;;;;23.00;74.90;;;;;;5034630;28;1668;-65
2022/08/28 02:56:59;;;;;;;;;;;23.00;74.90;;;;;;5052537;28;1279;-65
2022/08/28 02:59:25;;;;;;;;;;;23.00;74.90;;;;;;5044980;28;1957;-65
2022/08/28 03:01:50;;;;;;;;;;;23.00;74.90;;;;;;5049036;28;1193;-65
2022/08/28 03:04:15;;;;;;;;;;;22.90;74.80;;;;;;5052521;28;1059;-66
2022/08/28 03:06:41;;;;;;;;;;;23.00;74.90;;;;;;5044318;28;1228;-67
2022/08/28 03:09:06;;;;;;;;;;;23.00;74.90;;;;;;5052260;28;1324;-66
2022/08/28 03:11:32;;;;;;;;;;;23.00;74.90;;;;;;5033846;28;1271;-66
2022/08/28 03:13:58;;;;;;;;;;;23.00;74.90;;;;;;5051924;28;1450;-66
2022/08/28 03:16:24;;;;;;;;;;;23.00;74.90;;;;;;5034277;28;1533;-66
2022/08/28 03:18:49;;;;;;;;;;;23.00;74.90;;;;;;5052362;28;1902;-66
2022/08/28 03:21:15;;;;;;;;;;;23.00;74.90;;;;;;5052024;28;1326;-66
2022/08/28 03:23:40;;;;;;;;;;;23.00;74.90;;;;;;5050352;28;2143;-65
2022/08/28 03:26:10;;;;;;;;;;;23.00;74.90;;;;;;5046157;28;1263;-66
2022/08/28 03:28:41;;;;;;;;;;;23.00;74.90;;;;;;5048810;28;1366;-65
2022/08/28 03:31:07;;;;;;;;;;;23.00;74.90;;;;;;5033926;28;1174;-66
2022/08/28 03:33:33;;;;;;;;;;;23.00;74.90;;;;;;5034330;28;1327;-66
2022/08/28 03:35:58;;;;;;;;;;;23.00;74.90;;;;;;5052166;28;1361;-66
2022/08/28 03:38:24;;;;;;;;;;;23.00;74.90;;;;;;5051509;28;1910;-66
2022/08/28 03:40:50;;;;;;;;;;;23.00;74.90;;;;;;5051595;28;1315;-65
2022/08/28 03:43:16;;;;;;;;;;;22.90;74.80;;;;;;5051393;28;1220;-64
2022/08/28 03:45:59;;;;;;;;;;;23.00;74.90;;;;;;5034409;28;1327;-64
2022/08/28 03:48:25;;;;;;;;;;;23.00;74.90;;;;;;5051572;28;1810;-66
2022/08/28 03:50:52;;;;;;;;;;;23.00;74.90;;;;;;5051753;28;1158;-67
2022/08/28 03:53:21;;;;;;;;;;;22.90;74.80;;;;;;5051088;28;1307;-66
2022/08/28 03:55:46;;;;;;;;;;;22.90;74.90;;;;;;5051827;28;1301;-66
2022/08/28 03:58:12;;;;;;;;;;;22.90;74.90;;;;;;5036580;28;1959;-66
2022/08/28 04:00:39;;;;;;;;;;;23.00;74.90;;;;;;5055423;28;1255;-67
2022/08/28 04:03:04;;;;;;;;;;;23.00;74.90;;;;;;5037062;28;2166;-69
2022/08/28 04:05:30;;;;;;;;;;;23.00;74.90;;;;;;5055180;28;1359;-69
2022/08/28 04:07:55;;;;;;;;;;;23.00;74.90;;;;;;5055034;28;1340;-70
2022/08/28 04:10:20;;;;;;;;;;;23.00;75.00;;;;;;5055428;28;1348;-70
2022/08/28 04:12:49;;;;;;;;;;;23.00;75.00;;;;;;5054701;28;1316;-67
2022/08/28 04:15:14;;;;;;;;;;;23.00;74.90;;;;;;5055226;28;1315;-68
2022/08/28 04:17:40;;;;;;;;;;;23.00;74.90;;;;;;5049411;28;1078;-69
2022/08/28 04:20:06;;;;;;;;;;;23.00;74.90;;;;;;5055004;28;1914;-69
2022/08/28 04:22:31;;;;;;;;;;;22.90;74.90;;;;;;5054371;28;1240;-68
2022/08/28 04:24:57;;;;;;;;;;;22.90;74.90;;;;;;5055430;28;1349;-68
2022/08/28 04:27:22;;;;;;;;;;;22.90;74.90;;;;;;5045750;28;1325;-66
2022/08/28 04:29:48;;;;;;;;;;;23.00;74.90;;;;;;5052108;28;1400;-67
2022/08/28 04:32:14;;;;;;;;;;;23.00;74.90;;;;;;5054965;28;1122;-67
2022/08/28 04:34:39;;;;;;;;;;;23.00;75.00;;;;;;5054996;28;965;-67
2022/08/28 04:37:05;;;;;;;;;;;22.90;74.90;;;;;;5054523;28;2027;-67
2022/08/28 04:39:31;;;;;;;;;;;23.00;74.90;;;;;;5055247;28;1894;-67
2022/08/28 04:41:56;;;;;;;;;;;22.90;74.90;;;;;;5054525;28;1346;-68
2022/08/28 04:44:22;;;;;;;;;;;22.90;74.90;;;;;;5055146;28;1334;-67
2022/08/28 04:46:47;;;;;;;;;;;22.90;74.90;;;;;;5054863;28;1328;-66
2022/08/28 04:49:14;;;;;;;;;;;22.90;74.90;;;;;;5036771;28;1390;-68
2022/08/28 04:51:40;;;;;;;;;;;23.00;74.90;;;;;;5036233;28;1846;-67
2022/08/28 04:54:06;;;;;;;;;;;22.90;74.90;;;;;;5046612;28;1279;-68
2022/08/28 04:56:32;;;;;;;;;;;22.90;74.90;;;;;;5036847;28;1268;-67
2022/08/28 04:58:58;;;;;;;;;;;23.00;75.00;;;;;;5036512;28;1914;-67
2022/08/28 05:01:24;;;;;;;;;;;22.90;74.90;;;;;;5036496;28;1295;-66
2022/08/28 05:03:51;;;;;;;;;;;23.00;74.90;;;;;;5053891;28;1321;-67
2022/08/28 05:06:16;;;;;;;;;;;23.00;75.00;;;;;;5053411;28;1044;-68
2022/08/28 05:08:42;;;;;;;;;;;22.90;74.90;;;;;;5052677;28;1295;-67
2022/08/28 05:11:09;;;;;;;;;;;23.00;74.90;;;;;;5052840;28;1323;-67
2022/08/28 05:13:35;;;;;;;;;;;22.90;74.90;;;;;;5035827;28;903;-69
2022/08/28 05:16:01;;;;;;;;;;;22.90;74.80;;;;;;5053716;28;746;-68
2022/08/28 05:18:26;;;;;;;;;;;23.00;74.90;;;;;;5053567;28;1961;-68
2022/08/28 05:20:52;;;;;;;;;;;22.90;74.70;;;;;;5052917;28;1124;-68
2022/08/28 05:23:17;;;;;;;;;;;22.90;74.70;;;;;;5052921;28;871;-67
2022/08/28 05:25:44;;;;;;;;;;;22.90;74.60;;;;;;5035394;28;1087;-68
2022/08/28 05:28:09;;;;;;;;;;;22.90;74.70;;;;;;5052759;28;1400;-69
2022/08/28 05:30:36;;;;;;;;;;;22.90;74.70;;;;;;5053205;28;796;-67
2022/08/28 05:33:02;;;;;;;;;;;22.90;74.70;;;;;;5034907;28;886;-68
2022/08/28 05:35:27;;;;;;;;;;;22.90;74.70;;;;;;5035046;28;922;-69
2022/08/28 05:37:53;;;;;;;;;;;22.90;74.60;;;;;;5052798;28;1199;-67
2022/08/28 05:40:21;;;;;;;;;;;23.00;74.70;;;;;;5053390;28;1918;-69
2022/08/28 05:42:47;;;;;;;;;;;22.90;74.70;;;;;;5051981;28;946;-67
2022/08/28 05:45:13;;;;;;;;;;;23.00;74.80;;;;;;5053000;28;1021;-66
2022/08/28 05:47:38;;;;;;;;;;;22.90;75.60;;;;;;5053053;28;784;-66
2022/08/28 05:50:04;;;;;;;;;;;22.90;74.80;;;;;;5050696;28;1302;-68
2022/08/28 05:52:30;;;;;;;;;;;23.00;74.90;;;;;;5009956;28;2272;-67
2022/08/28 05:54:55;;;;;;;;;;;22.90;74.90;;;;;;5014596;28;863;-68
2022/08/28 05:57:21;;;;;;;;;;;22.90;74.80;;;;;;5032524;28;1018;-68
2022/08/28 05:59:46;;;;;;;;;;;23.00;75.00;;;;;;5032756;28;1965;-68
2022/08/28 06:02:12;;;;;;;;;;;23.00;74.90;;;;;;5032078;28;891;-68
2022/08/28 06:04:39;;;;;;;;;;;23.00;74.80;;;;;;5032751;28;1053;-68
2022/08/28 06:07:04;;;;;;;;;;;23.00;74.80;;;;;;5032376;28;851;-66
2022/08/28 06:09:30;;;;;;;;;;;23.00;74.80;;;;;;5032065;28;1189;-66
2022/08/28 06:11:57;;;;;;;;;;;23.00;74.80;;;;;;5014387;28;1011;-67
2022/08/28 06:14:22;;;;;;;;;;;23.00;74.80;;;;;;5032524;28;846;-67
2022/08/28 06:16:48;;;;;;;;;;;23.00;74.80;;;;;;5032392;28;803;-68
2022/08/28 06:19:15;;;;;;;;;;;23.00;74.80;;;;;;5031478;28;1961;-69
2022/08/28 06:21:41;;;;;;;;;;;23.00;74.90;;;;;;5049270;28;1171;-66
2022/08/28 06:24:07;;;;;;;;;;;23.00;75.60;;;;;;5034516;28;887;-67
2022/08/28 06:26:32;;;;;;;;;;;23.00;74.90;;;;;;5052154;28;1158;-66
2022/08/28 06:28:58;;;;;;;;;;;23.00;74.80;;;;;;5052140;28;1321;-68
2022/08/28 06:31:24;;;;;;;;;;;23.00;74.80;;;;;;5033619;28;836;-67
2022/08/28 06:33:50;;;;;;;;;;;23.00;74.90;;;;;;5050844;28;2152;-67
2022/08/28 06:36:15;;;;;;;;;;;23.00;74.90;;;;;;5052000;28;1258;-65
2022/08/28 06:38:45;;;;;;;;;;;23.00;74.90;;;;;;5051486;28;1961;-65
2022/08/28 06:41:11;;;;;;;;;;;23.00;74.90;;;;;;5049827;28;2072;-65
2022/08/28 06:43:36;;;;;;;;;;;23.00;74.90;;;;;;5034281;28;1147;-66
2022/08/28 06:46:02;;;;;;;;;;;23.00;74.90;;;;;;5051805;28;939;-68
2022/08/28 06:48:28;;;;;;;;;;;23.00;74.90;;;;;;5051378;28;1286;-65
2022/08/28 06:50:54;;;;;;;;;;;22.90;74.90;;;;;;5051043;28;1197;-69
2022/08/28 06:53:21;;;;;;;;;;;23.00;74.90;;;;;;5033738;28;1150;-66
2022/08/28 06:55:57;;;;;;;;;;;22.90;74.90;;;;;;5051549;28;1201;-66
2022/08/28 06:58:22;;;;;;;;;;;23.00;74.90;;;;;;5033814;28;1960;-66
2022/08/28 07:00:49;;;;;;;;;;;22.90;74.90;;;;;;5051678;28;931;-67
2022/08/28 07:03:14;;;;;;;;;;;23.00;74.90;;;;;;5051435;28;812;-67
2022/08/28 07:05:40;;;;;;;;;;;22.90;74.90;;;;;;5048550;28;2243;-67
2022/08/28 07:08:05;;;;;;;;;;;23.00;74.90;;;;;;5067630;22;1988;-67
2022/08/28 07:10:31;;;;;;;;;;;22.90;74.90;;;;;;5062498;28;1862;-68
2022/08/28 07:12:57;;;;;;;;;;;23.00;74.90;;;;;;5060465;28;1691;-67
2022/08/28 07:15:22;;;;;;;;;;;23.00;74.90;;;;;;5052424;28;1117;-68
2022/08/28 07:17:48;;;;;;;;;;;23.00;74.90;;;;;;5068833;28;1320;-67
2022/08/28 07:20:13;;;;;;;;;;;22.90;74.90;;;;;;5066124;28;1973;-67
2022/08/28 07:22:42;;;;;;;;;;;22.90;74.90;;;;;;5072443;28;878;-67
2022/08/28 07:25:08;;;;;;;;;;;23.00;75.00;;;;;;5072709;28;1462;-67
2022/08/28 07:27:33;;;;;;;;;;;23.00;75.00;;;;;;5072687;28;1633;-67
2022/08/28 07:30:00;;;;;;;;;;;22.90;74.90;;;;;;5072406;28;1267;-67
2022/08/28 07:32:26;;;;;;;;;;;23.00;74.90;;;;;;5057829;28;820;-67
2022/08/28 07:34:51;;;;;;;;;;;22.90;74.90;;;;;;5058840;28;1065;-67
2022/08/28 07:37:17;;;;;;;;;;;22.90;74.90;;;;;;5058826;28;803;-67
2022/08/28 07:39:42;;;;;;;;;;;23.00;74.90;;;;;;5076422;28;1901;-67
2022/08/28 07:42:08;;;;;;;;;;;22.90;74.90;;;;;;5058150;28;1269;-67
2022/08/28 07:44:49;;;;;;;;;;;22.90;74.90;;;;;;5058309;28;1595;-66
2022/08/28 07:47:14;;;;;;;;;;;22.90;74.80;;;;;;5076424;28;842;-67
2022/08/28 07:49:40;;;;;;;;;;;23.00;75.00;;;;;;5076418;28;1281;-66
2022/08/28 07:52:06;;;;;;;;;;;23.00;75.00;;;;;;5076059;28;846;-68
2022/08/28 07:54:31;;;;;;;;;;;22.90;74.90;;;;;;5076326;28;1021;-67
2022/08/28 07:56:57;;;;;;;;;;;22.90;74.90;;;;;;5058446;28;878;-69
2022/08/28 07:59:22;;;;;;;;;;;22.90;75.60;;;;;;5041460;28;1965;-68
2022/08/28 08:01:49;;;;;;;;;;;22.90;74.90;;;;;;5075932;28;862;-68
2022/08/28 08:04:15;;;;;;;;;;;22.90;74.90;;;;;;5076166;28;850;-68
2022/08/28 08:06:40;;;;;;;;;;;23.00;75.00;;;;;;5075976;28;839;-68
2022/08/28 08:09:08;;;;;;;;;;;22.90;74.90;;;;;;5040948;28;1591;-68
2022/08/28 08:11:34;;;;;;;;;;;22.90;75.00;;;;;;5074968;28;2235;-68
2022/08/28 08:14:04;;;;;;;;;;;22.90;75.00;;;;;;5057541;28;1144;-68
2022/08/28 08:16:29;;;;;;;;;;;22.90;75.00;;;;;;5058285;28;1297;-68
2022/08/28 08:18:56;;;;;;;;;;;23.00;75.00;;;;;;5075170;28;1906;-68
2022/08/28 08:21:21;;;;;;;;;;;22.90;75.00;;;;;;5057371;28;1159;-68
2022/08/28 08:23:47;;;;;;;;;;;23.00;75.00;;;;;;5075640;28;1193;-68
2022/08/28 08:26:13;;;;;;;;;;;22.90;75.00;;;;;;5057654;28;897;-69
2022/08/28 08:28:38;;;;;;;;;;;22.90;75.00;;;;;;5075059;28;1208;-69
2022/08/28 08:31:11;;;;;;;;;;;22.90;75.00;;;;;;5057529;28;990;-69
2022/08/28 08:33:38;;;;;;;;;;;22.90;75.00;;;;;;5057660;28;763;-69
2022/08/28 08:36:04;;;;;;;;;;;22.90;75.00;;;;;;5075295;28;827;-67
2022/08/28 08:38:30;;;;;;;;;;;22.90;75.00;;;;;;5075108;28;1953;-68
2022/08/28 08:40:56;;;;;;;;;;;22.90;75.00;;;;;;5057381;28;1136;-68
2022/08/28 08:43:22;;;;;;;;;;;23.00;75.10;;;;;;5056501;28;926;-68
2022/08/28 08:45:48;;;;;;;;;;;22.90;75.00;;;;;;5057607;28;960;-68
2022/08/28 08:48:20;;;;;;;;;;;23.00;75.10;;;;;;5075096;28;1353;-68
2022/08/28 08:50:45;;;;;;;;;;;22.90;75.00;;;;;;5057537;28;950;-68
2022/08/28 08:53:23;;;;;;;;;;;22.90;75.00;;;;;;5057013;28;1025;-68
2022/08/28 08:55:49;;;;;;;;;;;23.00;75.00;;;;;;5057241;28;1179;-68
2022/08/28 08:58:27;;;;;;;;;;;23.00;75.00;;;;;;5057082;28;1969;-68
2022/08/28 09:00:55;;;;;;;;;;;23.00;75.00;;;;;;5075002;28;811;-68
2022/08/28 09:03:25;;;;;;;;;;;23.00;75.10;;;;;;5055927;28;2010;-68
2022/08/28 09:05:52;;;;;;;;;;;22.90;75.00;;;;;;5033999;28;1557;-67
2022/08/28 09:08:20;;;;;;;;;;;22.90;75.00;;;;;;5039810;28;1566;-67
2022/08/28 09:10:49;;;;;;;;;;;22.90;75.00;;;;;;5056905;28;807;-67
2022/08/28 09:13:50;;;;;;;;;;;22.90;74.90;;;;;;5056619;28;881;-67
2022/08/28 09:16:19;;;;;;;;;;;23.00;75.00;;;;;;4992844;28;1231;-67
2022/08/28 09:18:47;;;;;;;;;;;23.00;75.00;;;;;;5041891;28;1910;-68
2022/08/28 09:21:15;;;;;;;;;;;23.00;75.10;;;;;;5056419;28;1680;-67
2022/08/28 09:23:40;;;;;;;;;;;22.90;74.90;;;;;;5056127;28;1572;-68
2022/08/28 09:26:10;;;;;;;;;;;22.90;74.90;;;;;;5074228;28;1374;-67
2022/08/28 09:28:37;;;;;;;;;;;23.00;75.00;;;;;;5056480;28;1380;-68
2022/08/28 09:31:04;;;;;;;;;;;22.90;75.00;;;;;;5073710;28;1347;-67
2022/08/28 09:33:31;;;;;;;;;;;22.90;74.90;;;;;;5056183;28;1330;-68
2022/08/28 09:35:56;;;;;;;;;;;22.90;74.90;;;;;;5040134;28;1944;-68
2022/08/28 09:38:22;;;;;;;;;;;23.00;75.00;;;;;;5074328;28;1906;-68
2022/08/28 09:43:33;;;;;;;;;;;22.90;74.90;;;;;;5074122;28;1068;-67
2022/08/28 09:46:00;;;;;;;;;;;22.90;75.00;;;;;;5056615;28;834;-68
2022/08/28 09:48:31;;;;;;;;;;;23.00;75.00;;;;;;5040344;28;1339;-67
2022/08/28 09:50:58;;;;;;;;;;;23.00;75.00;;;;;;5074011;28;799;-67
2022/08/28 09:53:24;;;;;;;;;;;22.90;75.00;;;;;;5074085;28;858;-68
2022/08/28 09:56:09;;;;;;;;;;;22.90;74.90;;;;;;5069028;28;1405;-68
2022/08/28 09:58:36;;;;;;;;;;;22.90;75.00;;;;;;5073582;28;1898;-70
2022/08/28 10:01:04;;;;;;;;;;;22.90;74.90;;;;;;5055875;28;815;-67
2022/08/28 10:03:32;;;;;;;;;;;22.90;74.90;;;;;;5055904;28;844;-67
2022/08/28 10:06:07;;;;;;;;;;;22.90;74.90;;;;;;5055961;28;815;-67
2022/08/28 10:08:47;;;;;;;;;;;23.00;75.00;;;;;;5073032;28;1285;-69
2022/08/28 10:11:18;;;;;;;;;;;22.90;74.90;;;;;;5055598;28;870;-68
2022/08/28 10:13:47;;;;;;;;;;;23.00;75.00;;;;;;5055641;28;828;-68
2022/08/28 10:16:20;;;;;;;;;;;22.90;74.90;;;;;;5054712;28;946;-68
2022/08/28 10:18:48;;;;;;;;;;;22.90;74.70;;;;;;5055449;28;1910;-68
2022/08/28 10:21:32;;;;;;;;;;;22.90;74.90;;;;;;5072838;28;1507;-68
2022/08/28 10:23:57;;;;;;;;;;;22.90;75.00;;;;;;5055330;28;895;-68
2022/08/28 10:26:29;;;;;;;;;;;22.90;75.10;;;;;;5073255;28;1417;-68
2022/08/28 10:28:57;;;;;;;;;;;23.00;75.30;;;;;;5073349;28;1197;-68
2022/08/28 10:31:25;;;;;;;;;;;23.00;75.30;;;;;;5072795;28;1037;-68
2022/08/28 10:33:58;;;;;;;;;;;22.90;75.30;;;;;;5073172;28;1110;-68
2022/08/28 10:36:30;;;;;;;;;;;23.00;75.30;;;;;;5055240;28;856;-68
2022/08/28 10:38:58;;;;;;;;;;;23.00;76.10;;;;;;5055293;28;1901;-68
2022/08/28 10:41:24;;;;;;;;;;;23.00;75.40;;;;;;5072878;28;901;-67
2022/08/28 10:43:51;;;;;;;;;;;23.00;75.40;;;;;;5055232;28;981;-67
2022/08/28 10:46:31;;;;;;;;;;;23.00;75.50;;;;;;5055561;28;819;-67
2022/08/28 10:49:03;;;;;;;;;;;23.00;75.30;;;;;;5055084;28;1254;-67
2022/08/28 10:51:32;;;;;;;;;;;23.00;75.20;;;;;;5054790;28;1021;-67
2022/08/28 10:53:58;;;;;;;;;;;23.00;75.30;;;;;;5073069;28;760;-67
2022/08/28 10:56:27;;;;;;;;;;;23.00;75.40;;;;;;5054981;28;910;-67
2022/08/28 10:58:54;;;;;;;;;;;23.00;75.40;;;;;;5072862;28;1906;-67
2022/08/28 11:01:25;;;;;;;;;;;23.00;75.40;;;;;;5054704;28;922;-67
2022/08/28 11:03:50;;;;;;;;;;;23.00;76.10;;;;;;5054413;28;2279;-67
2022/08/28 11:06:35;;;;;;;;;;;23.00;75.40;;;;;;5054455;28;1512;-67
2022/08/28 11:09:23;;;;;;;;;;;23.00;75.40;;;;;;5052546;28;1204;-67
2022/08/28 11:11:49;;;;;;;;;;;23.00;75.40;;;;;;5040028;28;2229;-67
2022/08/28 11:14:28;;;;;;;;;;;23.00;75.30;;;;;;5054508;28;1119;-67
2022/08/28 11:16:55;;;;;;;;;;;23.00;75.30;;;;;;5054735;28;1307;-67
2022/08/28 11:19:24;;;;;;;;;;;23.00;75.30;;;;;;5054143;28;1965;-67
2022/08/28 11:22:03;;;;;;;;;;;23.00;75.30;;;;;;5054259;28;1175;-67
2022/08/28 11:24:28;;;;;;;;;;;23.00;76.10;;;;;;5054594;28;1310;-67
2022/08/28 11:27:00;;;;;;;;;;;23.00;75.30;;;;;;5072407;28;1072;-67
2022/08/28 11:29:44;;;;;;;;;;;23.00;75.20;;;;;;5071951;28;1383;-67
2022/08/28 11:32:28;;;;;;;;;;;23.00;75.20;;;;;;5072149;28;863;-67
2022/08/28 11:34:56;;;;;;;;;;;23.00;75.00;;;;;;5072601;28;910;-67
2022/08/28 11:37:41;;;;;;;;;;;23.00;75.10;;;;;;5054868;28;1109;-67
2022/08/28 11:40:15;;;;;;;;;;;22.90;75.00;;;;;;5071909;28;1965;-67
2022/08/28 11:42:40;;;;;;;;;;;23.00;75.10;;;;;;5072034;28;807;-67
2022/08/28 11:45:06;;;;;;;;;;;23.00;75.10;;;;;;5071635;28;2184;-67
2022/08/28 11:47:31;;;;;;;;;;;22.90;75.10;;;;;;5054444;28;1150;-67
2022/08/28 11:50:01;;;;;;;;;;;23.00;75.10;;;;;;5072153;28;1291;-66
2022/08/28 11:52:45;;;;;;;;;;;22.90;75.10;;;;;;5051788;28;1148;-67
2022/08/28 11:55:24;;;;;;;;;;;22.90;75.00;;;;;;5065666;28;1154;-67
2022/08/28 11:57:52;;;;;;;;;;;23.00;75.10;;;;;;5072271;28;1263;-67
2022/08/28 12:00:31;;;;;;;;;;;23.00;75.80;;;;;;5072096;28;1891;-67
2022/08/28 12:03:12;;;;;;;;;;;23.00;75.10;;;;;;5054130;28;966;-67
2022/08/28 12:05:45;;;;;;;;;;;23.00;75.00;;;;;;5054291;28;811;-67
2022/08/28 12:08:11;;;;;;;;;;;23.00;75.10;;;;;;5053819;28;1199;-67
2022/08/28 12:10:36;;;;;;;;;;;23.00;75.00;;;;;;5053998;28;910;-67
2022/08/28 12:13:02;;;;;;;;;;;23.00;75.10;;;;;;5071845;28;914;-67
2022/08/28 12:15:32;;;;;;;;;;;23.00;75.10;;;;;;5053998;28;1236;-67
2022/08/28 12:18:01;;;;;;;;;;;23.00;75.10;;;;;;5072640;28;1124;-67
2022/08/28 12:20:32;;;;;;;;;;;23.00;75.10;;;;;;5057429;28;1951;-67
2022/08/28 12:23:00;;;;;;;;;;;22.90;75.10;;;;;;5072824;28;1000;-67
2022/08/28 12:25:25;;;;;;;;;;;23.00;75.20;;;;;;5057065;28;1307;-67
2022/08/28 12:27:51;;;;;;;;;;;23.00;75.20;;;;;;5074900;28;1364;-67
2022/08/28 12:30:26;;;;;;;;;;;23.00;75.20;;;;;;5056914;28;1275;-67
2022/08/28 12:32:57;;;;;;;;;;;23.00;75.20;;;;;;5071930;28;1942;-67
2022/08/28 12:35:23;;;;;;;;;;;23.00;75.20;;;;;;5075107;28;1173;-67
2022/08/28 12:37:49;;;;;;;;;;;23.00;75.20;;;;;;5057277;28;839;-67
2022/08/28 12:40:21;;;;;;;;;;;23.00;75.30;;;;;;5075099;28;1894;-67
2022/08/28 12:42:48;;;;;;;;;;;23.00;75.40;;;;;;5056710;28;1306;-67
2022/08/28 12:45:22;;;;;;;;;;;23.00;75.40;;;;;;5057035;28;858;-67
2022/08/28 12:47:47;;;;;;;;;;;23.00;75.50;;;;;;5074783;28;839;-67
2022/08/28 12:50:30;;;;;;;;;;;23.00;75.50;;;;;;5056783;28;1196;-67
2022/08/28 12:52:56;;;;;;;;;;;23.00;75.50;;;;;;5056188;28;1025;-67
2022/08/28 12:55:22;;;;;;;;;;;23.00;75.50;;;;;;5075110;28;1122;-67
2022/08/28 12:57:48;;;;;;;;;;;23.00;75.60;;;;;;5056763;28;930;-67
2022/08/28 13:00:32;;;;;;;;;;;23.00;75.70;;;;;;5056681;28;1948;-67
2022/08/28 13:02:57;;;;;;;;;;;23.00;75.70;;;;;;5074814;28;886;-67
2022/08/28 13:05:30;;;;;;;;;;;23.00;75.70;;;;;;5056452;28;1218;-68
2022/08/28 13:07:56;;;;;;;;;;;23.00;75.60;;;;;;5056305;28;1216;-67
2022/08/28 13:10:21;;;;;;;;;;;23.00;75.60;;;;;;5089660;22;2012;-70
2022/08/28 13:12:53;;;;;;;;;;;23.00;75.60;;;;;;5095225;28;839;-70
2022/08/28 13:15:38;;;;;;;;;;;23.00;75.50;;;;;;5094748;28;779;-71
2022/08/28 13:18:03;;;;;;;;;;;23.00;75.60;;;;;;5094537;28;917;-71
2022/08/28 13:20:30;;;;;;;;;;;23.00;75.60;;;;;;5094240;28;1910;-71
2022/08/28 13:22:55;;;;;;;;;;;23.00;75.60;;;;;;5075719;28;1240;-71
2022/08/28 13:25:22;;;;;;;;;;;23.00;75.50;;;;;;5076088;28;1159;-71
2022/08/28 13:27:58;;;;;;;;;;;23.00;75.40;;;;;;5089889;28;2017;-71
2022/08/28 13:30:25;;;;;;;;;;;23.00;75.50;;;;;;5082341;28;1288;-71
2022/08/28 13:32:58;;;;;;;;;;;23.00;75.50;;;;;;5075383;28;1348;-71
2022/08/28 13:35:23;;;;;;;;;;;23.00;76.20;;;;;;5075865;28;1278;-70
2022/08/28 13:37:55;;;;;;;;;;;23.00;75.50;;;;;;5093413;28;1311;-71
2022/08/28 13:40:22;;;;;;;;;;;23.00;75.50;;;;;;5101271;28;1906;-71
2022/08/28 13:42:47;;;;;;;;;;;23.00;75.50;;;;;;5090999;28;1183;-70
2022/08/28 13:45:13;;;;;;;;;;;23.00;75.50;;;;;;5092820;28;1016;-71
2022/08/28 13:47:38;;;;;;;;;;;23.00;75.50;;;;;;5088358;28;2247;-71
2022/08/28 13:50:04;;;;;;;;;;;23.00;75.50;;;;;;5075289;28;1320;-71
2022/08/28 13:52:30;;;;;;;;;;;23.00;75.50;;;;;;5075403;28;1196;-71
2022/08/28 13:54:55;;;;;;;;;;;23.00;75.50;;;;;;5076033;28;1090;-71
2022/08/28 13:57:23;;;;;;;;;;;23.00;75.40;;;;;;5094151;28;787;-71
2022/08/28 13:59:48;;;;;;;;;;;23.00;76.20;;;;;;5093644;28;1894;-71
2022/08/28 14:04:58;;;;;;;;;;;23.00;75.30;;;;;;5094240;28;660;-71
2022/08/28 14:07:23;;;;;;;;;;;23.00;75.30;;;;;;5075569;28;842;-70
2022/08/28 14:09:49;;;;;;;;;;;23.00;75.50;;;;;;5075442;28;1279;-71
2022/08/28 14:12:15;;;;;;;;;;;23.00;75.50;;;;;;5093274;28;803;-71
2022/08/28 14:14:40;;;;;;;;;;;23.00;75.50;;;;;;5075611;28;811;-71
2022/08/28 14:17:06;;;;;;;;;;;23.00;75.40;;;;;;5093692;28;1195;-71
2022/08/28 14:19:31;;;;;;;;;;;23.00;75.40;;;;;;5067378;28;1972;-71
2022/08/28 14:21:57;;;;;;;;;;;23.00;75.40;;;;;;5074834;28;985;-71
2022/08/28 14:24:22;;;;;;;;;;;23.00;75.40;;;;;;5093515;28;997;-70
2022/08/28 14:26:48;;;;;;;;;;;23.00;75.30;;;;;;5093122;28;1090;-71
2022/08/28 14:29:14;;;;;;;;;;;23.00;75.40;;;;;;5088876;28;1480;-69
2022/08/28 14:31:39;;;;;;;;;;;23.00;75.40;;;;;;5073187;28;1242;-70
2022/08/28 14:34:09;;;;;;;;;;;23.00;75.40;;;;;;5093181;28;1187;-72
2022/08/28 14:36:35;;;;;;;;;;;23.00;75.50;;;;;;5074432;28;1279;-71
2022/08/28 14:39:01;;;;;;;;;;;23.00;75.50;;;;;;5093376;28;1961;-74
2022/08/28 14:41:26;;;;;;;;;;;23.00;75.40;;;;;;5073548;28;1183;-73